sensor_id;sensor_type;location;lat;lon;timestamp;P1;durP1;ratioP1;P2;durP2;ratioP2
31270;SDS011;17904;47.420;9.310;2022-11-04T00:04:33;1.45;;;0.70;;
31270;SDS011;17904;47.420;9.310;2022-11-04T00:07:00;2.42;;;0.80;;
31270;SDS011;17904;47.420;9.310;2022-11-04T00:11:54;0.52;;;0.50;;
31270;SDS011;17904;47.420;9.310;2022-11-04T00:14:41;0.80;;;0.70;;
31270;SDS011;17904;47.420;9.310;2022-11-04T00:17:10;2.67;;;0.60;;
31270;SDS011;17904;47.420;9.310;2022-11-04T00:19:51;0.57;;;0.52;;
31270;SDS011;17904;47.420;9.310;2022-11-04T00:22:37;1.97;;;0.60;;
31270;SDS011;17904;47.420;9.310;2022-11-04T00:25:24;1.05;;;0.75;;
31270;SDS011;17904;47.420;9.310;2022-11-04T00:28:11;0.80;;;0.40;;
31270;SDS011;17904;47.420;9.310;2022-11-04T00:30:58;0.70;;;0.60;;
31270;SDS011;17904;47.420;9.310;2022-11-04T00:33:49;0.43;;;0.43;;
31270;SDS011;17904;47.420;9.310;2022-11-04T00:36:17;0.95;;;0.77;;
31270;SDS011;17904;47.420;9.310;2022-11-04T00:38:44;1.45;;;0.68;;
31270;SDS011;17904;47.420;9.310;2022-11-04T00:41:11;0.65;;;0.63;;
31270;SDS011;17904;47.420;9.310;2022-11-04T00:43:58;0.52;;;0.43;;
31270;SDS011;17904;47.420;9.310;2022-11-04T00:46:27;1.17;;;0.95;;
31270;SDS011;17904;47.420;9.310;2022-11-04T00:48:55;0.63;;;0.63;;
31270;SDS011;17904;47.420;9.310;2022-11-04T00:51:22;0.93;;;0.65;;
31270;SDS011;17904;47.420;9.310;2022-11-04T00:53:49;2.15;;;0.63;;
31270;SDS011;17904;47.420;9.310;2022-11-04T00:56:16;1.17;;;0.70;;
31270;SDS011;17904;47.420;9.310;2022-11-04T01:01:10;0.82;;;0.60;;
31270;SDS011;17904;47.420;9.310;2022-11-04T01:03:46;3.85;;;0.70;;
31270;SDS011;17904;47.420;9.310;2022-11-04T01:06:15;0.60;;;0.60;;
31270;SDS011;17904;47.420;9.310;2022-11-04T01:08:42;0.63;;;0.60;;
31270;SDS011;17904;47.420;9.310;2022-11-04T01:13:36;0.80;;;0.80;;
31270;SDS011;17904;47.420;9.310;2022-11-04T01:16:05;0.52;;;0.52;;
31270;SDS011;17904;47.420;9.310;2022-11-04T01:18:34;0.70;;;0.70;;
31270;SDS011;17904;47.420;9.310;2022-11-04T01:21:05;12.60;;;0.80;;
31270;SDS011;17904;47.420;9.310;2022-11-04T01:23:33;0.98;;;0.73;;
31270;SDS011;17904;47.420;9.310;2022-11-04T01:26:03;3.22;;;0.60;;
31270;SDS011;17904;47.420;9.310;2022-11-04T01:28:33;1.90;;;0.63;;
31270;SDS011;17904;47.420;9.310;2022-11-04T01:31:10;3.20;;;0.90;;
31270;SDS011;17904;47.420;9.310;2022-11-04T01:33:39;0.70;;;0.60;;
31270;SDS011;17904;47.420;9.310;2022-11-04T01:36:06;2.92;;;0.60;;
31270;SDS011;17904;47.420;9.310;2022-11-04T01:38:35;1.17;;;0.70;;
31270;SDS011;17904;47.420;9.310;2022-11-04T01:46:12;0.77;;;0.65;;
31270;SDS011;17904;47.420;9.310;2022-11-04T01:48:57;0.95;;;0.90;;
31270;SDS011;17904;47.420;9.310;2022-11-04T01:51:28;0.73;;;0.70;;
31270;SDS011;17904;47.420;9.310;2022-11-04T01:54:00;0.70;;;0.70;;
31270;SDS011;17904;47.420;9.310;2022-11-04T01:56:29;1.27;;;0.90;;
31270;SDS011;17904;47.420;9.310;2022-11-04T01:58:57;3.70;;;1.70;;
31270;SDS011;17904;47.420;9.310;2022-11-04T02:01:30;2.38;;;1.10;;
31270;SDS011;17904;47.420;9.310;2022-11-04T02:06:45;1.85;;;1.20;;
31270;SDS011;17904;47.420;9.310;2022-11-04T02:09:13;1.00;;;0.88;;
31270;SDS011;17904;47.420;9.310;2022-11-04T02:11:42;0.80;;;0.70;;
31270;SDS011;17904;47.420;9.310;2022-11-04T02:14:27;1.65;;;0.65;;
31270;SDS011;17904;47.420;9.310;2022-11-04T02:23:00;1.75;;;1.00;;
31270;SDS011;17904;47.420;9.310;2022-11-04T02:43:03;1.60;;;1.00;;
31270;SDS011;17904;47.420;9.310;2022-11-04T02:45:40;4.25;;;0.90;;
31270;SDS011;17904;47.420;9.310;2022-11-04T02:48:17;1.93;;;0.87;;
31270;SDS011;17904;47.420;9.310;2022-11-04T02:50:55;1.50;;;1.13;;
31270;SDS011;17904;47.420;9.310;2022-11-04T02:53:51;2.88;;;0.80;;
31270;SDS011;17904;47.420;9.310;2022-11-04T02:56:21;1.02;;;0.90;;
31270;SDS011;17904;47.420;9.310;2022-11-04T02:58:52;0.68;;;0.68;;
31270;SDS011;17904;47.420;9.310;2022-11-04T03:01:22;1.65;;;0.60;;
31270;SDS011;17904;47.420;9.310;2022-11-04T03:03:56;3.20;;;0.82;;
31270;SDS011;17904;47.420;9.310;2022-11-04T03:06:36;0.88;;;0.80;;
31270;SDS011;17904;47.420;9.310;2022-11-04T03:09:04;0.82;;;0.60;;
31270;SDS011;17904;47.420;9.310;2022-11-04T03:11:33;2.17;;;0.85;;
31270;SDS011;17904;47.420;9.310;2022-11-04T03:14:05;0.63;;;0.63;;
31270;SDS011;17904;47.420;9.310;2022-11-04T03:22:10;1.63;;;0.73;;
31270;SDS011;17904;47.420;9.310;2022-11-04T03:24:39;2.50;;;1.10;;
31270;SDS011;17904;47.420;9.310;2022-11-04T03:27:22;1.33;;;0.90;;
31270;SDS011;17904;47.420;9.310;2022-11-04T03:30:15;2.40;;;0.98;;
31270;SDS011;17904;47.420;9.310;2022-11-04T03:32:55;1.00;;;0.85;;
31270;SDS011;17904;47.420;9.310;2022-11-04T03:35:29;1.13;;;0.80;;
31270;SDS011;17904;47.420;9.310;2022-11-04T03:37:56;2.50;;;0.85;;
31270;SDS011;17904;47.420;9.310;2022-11-04T03:40:23;1.85;;;0.80;;
31270;SDS011;17904;47.420;9.310;2022-11-04T03:42:55;0.85;;;0.80;;
31270;SDS011;17904;47.420;9.310;2022-11-04T03:45:36;3.03;;;0.50;;
31270;SDS011;17904;47.420;9.310;2022-11-04T03:48:04;0.80;;;0.80;;
31270;SDS011;17904;47.420;9.310;2022-11-04T03:50:32;2.95;;;0.77;;
31270;SDS011;17904;47.420;9.310;2022-11-04T03:53:07;1.73;;;0.85;;
31270;SDS011;17904;47.420;9.310;2022-11-04T03:55:47;1.65;;;1.10;;
31270;SDS011;17904;47.420;9.310;2022-11-04T03:58:42;1.17;;;0.90;;
31270;SDS011;17904;47.420;9.310;2022-11-04T04:04:28;0.73;;;0.65;;
31270;SDS011;17904;47.420;9.310;2022-11-04T04:07:03;0.95;;;0.82;;
31270;SDS011;17904;47.420;9.310;2022-11-04T04:09:43;1.05;;;0.95;;
31270;SDS011;17904;47.420;9.310;2022-11-04T04:14:53;1.08;;;0.80;;
31270;SDS011;17904;47.420;9.310;2022-11-04T04:20:18;1.25;;;0.85;;
31270;SDS011;17904;47.420;9.310;2022-11-04T04:22:53;1.38;;;0.85;;
31270;SDS011;17904;47.420;9.310;2022-11-04T04:25:24;2.78;;;1.02;;
31270;SDS011;17904;47.420;9.310;2022-11-04T04:28:12;1.80;;;1.08;;
31270;SDS011;17904;47.420;9.310;2022-11-04T04:30:42;7.97;;;1.30;;
31270;SDS011;17904;47.420;9.310;2022-11-04T04:33:12;1.13;;;0.95;;
31270;SDS011;17904;47.420;9.310;2022-11-04T04:35:43;2.55;;;1.15;;
31270;SDS011;17904;47.420;9.310;2022-11-04T04:38:22;1.40;;;1.30;;
31270;SDS011;17904;47.420;9.310;2022-11-04T04:44:01;4.63;;;1.55;;
31270;SDS011;17904;47.420;9.310;2022-11-04T04:46:47;2.90;;;1.42;;
31270;SDS011;17904;47.420;9.310;2022-11-04T04:49:18;2.10;;;1.20;;
31270;SDS011;17904;47.420;9.310;2022-11-04T04:51:44;1.83;;;1.38;;
31270;SDS011;17904;47.420;9.310;2022-11-04T04:54:13;2.15;;;1.02;;
31270;SDS011;17904;47.420;9.310;2022-11-04T04:56:40;6.55;;;2.25;;
31270;SDS011;17904;47.420;9.310;2022-11-04T04:59:06;4.35;;;2.10;;
31270;SDS011;17904;47.420;9.310;2022-11-04T05:04:00;4.43;;;1.77;;
31270;SDS011;17904;47.420;9.310;2022-11-04T05:08:54;4.88;;;1.88;;
31270;SDS011;17904;47.420;9.310;2022-11-04T05:11:20;7.78;;;1.30;;
31270;SDS011;17904;47.420;9.310;2022-11-04T05:13:52;1.75;;;0.98;;
31270;SDS011;17904;47.420;9.310;2022-11-04T05:18:45;5.88;;;1.10;;
31270;SDS011;17904;47.420;9.310;2022-11-04T05:21:13;2.25;;;1.10;;
31270;SDS011;17904;47.420;9.310;2022-11-04T05:23:41;1.40;;;1.27;;
31270;SDS011;17904;47.420;9.310;2022-11-04T05:26:07;3.70;;;1.30;;
31270;SDS011;17904;47.420;9.310;2022-11-04T05:28:34;2.33;;;1.17;;
31270;SDS011;17904;47.420;9.310;2022-11-04T05:31:02;1.17;;;0.68;;
31270;SDS011;17904;47.420;9.310;2022-11-04T05:33:30;2.92;;;0.77;;
31270;SDS011;17904;47.420;9.310;2022-11-04T05:36:10;4.28;;;1.10;;
31270;SDS011;17904;47.420;9.310;2022-11-04T05:38:38;2.05;;;1.17;;
31270;SDS011;17904;47.420;9.310;2022-11-04T05:41:06;2.15;;;1.30;;
31270;SDS011;17904;47.420;9.310;2022-11-04T05:43:34;0.88;;;0.70;;
31270;SDS011;17904;47.420;9.310;2022-11-04T05:48:27;2.40;;;1.48;;
31270;SDS011;17904;47.420;9.310;2022-11-04T05:50:54;1.23;;;0.98;;
31270;SDS011;17904;47.420;9.310;2022-11-04T05:53:21;3.60;;;1.50;;
31270;SDS011;17904;47.420;9.310;2022-11-04T05:58:15;2.63;;;2.00;;
31270;SDS011;17904;47.420;9.310;2022-11-04T06:00:42;3.83;;;2.28;;
31270;SDS011;17904;47.420;9.310;2022-11-04T06:03:08;3.30;;;1.98;;
31270;SDS011;17904;47.420;9.310;2022-11-04T06:05:41;2.55;;;1.70;;
31270;SDS011;17904;47.420;9.310;2022-11-04T06:08:08;4.93;;;2.05;;
31270;SDS011;17904;47.420;9.310;2022-11-04T06:10:35;3.30;;;1.40;;
31270;SDS011;17904;47.420;9.310;2022-11-04T06:13:02;1.77;;;1.20;;
31270;SDS011;17904;47.420;9.310;2022-11-04T06:15:28;7.60;;;1.70;;
31270;SDS011;17904;47.420;9.310;2022-11-04T06:17:55;1.33;;;1.20;;
31270;SDS011;17904;47.420;9.310;2022-11-04T06:20:22;2.33;;;1.38;;
31270;SDS011;17904;47.420;9.310;2022-11-04T06:22:48;2.67;;;1.48;;
31270;SDS011;17904;47.420;9.310;2022-11-04T06:25:15;5.38;;;1.60;;
31270;SDS011;17904;47.420;9.310;2022-11-04T06:30:09;4.15;;;1.42;;
31270;SDS011;17904;47.420;9.310;2022-11-04T06:32:36;2.72;;;1.58;;
31270;SDS011;17904;47.420;9.310;2022-11-04T06:35:03;2.97;;;1.58;;
31270;SDS011;17904;47.420;9.310;2022-11-04T06:37:30;2.80;;;1.38;;
31270;SDS011;17904;47.420;9.310;2022-11-04T06:39:56;1.13;;;1.02;;
31270;SDS011;17904;47.420;9.310;2022-11-04T06:42:23;1.85;;;1.10;;
31270;SDS011;17904;47.420;9.310;2022-11-04T06:44:51;1.80;;;1.13;;
31270;SDS011;17904;47.420;9.310;2022-11-04T06:47:18;4.65;;;1.23;;
31270;SDS011;17904;47.420;9.310;2022-11-04T06:49:50;2.40;;;1.92;;
31270;SDS011;17904;47.420;9.310;2022-11-04T06:54:43;1.90;;;1.30;;
31270;SDS011;17904;47.420;9.310;2022-11-04T06:57:10;1.02;;;0.93;;
31270;SDS011;17904;47.420;9.310;2022-11-04T06:59:37;4.15;;;1.60;;
31270;SDS011;17904;47.420;9.310;2022-11-04T07:02:04;4.28;;;1.70;;
31270;SDS011;17904;47.420;9.310;2022-11-04T07:04:31;2.58;;;1.10;;
31270;SDS011;17904;47.420;9.310;2022-11-04T07:06:58;1.73;;;1.05;;
31270;SDS011;17904;47.420;9.310;2022-11-04T07:09:24;1.77;;;1.30;;
31270;SDS011;17904;47.420;9.310;2022-11-04T07:11:51;1.88;;;1.67;;
31270;SDS011;17904;47.420;9.310;2022-11-04T07:14:18;1.98;;;1.55;;
31270;SDS011;17904;47.420;9.310;2022-11-04T07:16:44;2.08;;;1.38;;
31270;SDS011;17904;47.420;9.310;2022-11-04T07:19:15;3.53;;;1.48;;
31270;SDS011;17904;47.420;9.310;2022-11-04T07:21:41;1.20;;;1.10;;
31270;SDS011;17904;47.420;9.310;2022-11-04T07:24:08;2.88;;;1.30;;
31270;SDS011;17904;47.420;9.310;2022-11-04T07:26:35;8.63;;;1.38;;
31270;SDS011;17904;47.420;9.310;2022-11-04T07:31:28;2.25;;;1.50;;
31270;SDS011;17904;47.420;9.310;2022-11-04T07:33:55;2.53;;;1.73;;
31270;SDS011;17904;47.420;9.310;2022-11-04T07:38:48;3.92;;;2.42;;
31270;SDS011;17904;47.420;9.310;2022-11-04T07:41:15;4.00;;;2.47;;
31270;SDS011;17904;47.420;9.310;2022-11-04T07:43:46;3.13;;;2.33;;
31270;SDS011;17904;47.420;9.310;2022-11-04T07:46:14;4.47;;;2.72;;
31270;SDS011;17904;47.420;9.310;2022-11-04T07:48:40;2.47;;;2.10;;
31270;SDS011;17904;47.420;9.310;2022-11-04T07:51:08;2.30;;;1.80;;
31270;SDS011;17904;47.420;9.310;2022-11-04T07:53:37;3.58;;;2.00;;
31270;SDS011;17904;47.420;9.310;2022-11-04T07:56:05;2.15;;;1.75;;
31270;SDS011;17904;47.420;9.310;2022-11-04T07:58:33;2.42;;;1.77;;
31270;SDS011;17904;47.420;9.310;2022-11-04T08:01:01;4.53;;;2.03;;
31270;SDS011;17904;47.420;9.310;2022-11-04T08:03:30;4.72;;;1.88;;
31270;SDS011;17904;47.420;9.310;2022-11-04T08:08:24;2.88;;;1.90;;
31270;SDS011;17904;47.420;9.310;2022-11-04T08:10:56;2.08;;;1.80;;
31270;SDS011;17904;47.420;9.310;2022-11-04T08:13:28;2.17;;;1.58;;
31270;SDS011;17904;47.420;9.310;2022-11-04T08:15:59;3.20;;;1.98;;
31270;SDS011;17904;47.420;9.310;2022-11-04T08:18:29;2.38;;;1.80;;
31270;SDS011;17904;47.420;9.310;2022-11-04T08:20:56;2.75;;;1.83;;
31270;SDS011;17904;47.420;9.310;2022-11-04T08:23:24;2.25;;;1.73;;
31270;SDS011;17904;47.420;9.310;2022-11-04T08:25:51;3.00;;;2.20;;
31270;SDS011;17904;47.420;9.310;2022-11-04T08:28:18;3.33;;;2.20;;
31270;SDS011;17904;47.420;9.310;2022-11-04T08:31:19;2.75;;;1.98;;
31270;SDS011;17904;47.420;9.310;2022-11-04T08:33:42;3.60;;;2.08;;
31270;SDS011;17904;47.420;9.310;2022-11-04T08:36:10;3.25;;;2.25;;
31270;SDS011;17904;47.420;9.310;2022-11-04T08:38:42;2.75;;;2.08;;
31270;SDS011;17904;47.420;9.310;2022-11-04T08:41:10;2.25;;;2.03;;
31270;SDS011;17904;47.420;9.310;2022-11-04T08:43:38;4.95;;;2.20;;
31270;SDS011;17904;47.420;9.310;2022-11-04T08:46:07;4.13;;;2.47;;
31270;SDS011;17904;47.420;9.310;2022-11-04T08:48:36;2.88;;;2.03;;
31270;SDS011;17904;47.420;9.310;2022-11-04T08:51:04;2.72;;;1.95;;
31270;SDS011;17904;47.420;9.310;2022-11-04T08:53:32;4.53;;;2.63;;
31270;SDS011;17904;47.420;9.310;2022-11-04T08:55:59;2.80;;;2.03;;
31270;SDS011;17904;47.420;9.310;2022-11-04T08:58:33;4.72;;;2.20;;
31270;SDS011;17904;47.420;9.310;2022-11-04T09:01:02;3.30;;;2.00;;
31270;SDS011;17904;47.420;9.310;2022-11-04T09:03:30;3.08;;;2.30;;
31270;SDS011;17904;47.420;9.310;2022-11-04T09:05:59;4.10;;;2.40;;
31270;SDS011;17904;47.420;9.310;2022-11-04T09:08:26;3.97;;;2.58;;
31270;SDS011;17904;47.420;9.310;2022-11-04T09:13:19;3.95;;;2.10;;
31270;SDS011;17904;47.420;9.310;2022-11-04T09:15:46;1.85;;;1.65;;
31270;SDS011;17904;47.420;9.310;2022-11-04T09:18:14;4.60;;;2.28;;
31270;SDS011;17904;47.420;9.310;2022-11-04T09:20:41;3.90;;;2.53;;
31270;SDS011;17904;47.420;9.310;2022-11-04T09:23:08;4.90;;;1.42;;
31270;SDS011;17904;47.420;9.310;2022-11-04T09:25:35;4.72;;;1.52;;
31270;SDS011;17904;47.420;9.310;2022-11-04T09:28:02;2.30;;;1.35;;
31270;SDS011;17904;47.420;9.310;2022-11-04T09:30:29;5.03;;;1.35;;
31270;SDS011;17904;47.420;9.310;2022-11-04T09:35:23;3.47;;;1.30;;
31270;SDS011;17904;47.420;9.310;2022-11-04T09:37:52;2.35;;;1.13;;
31270;SDS011;17904;47.420;9.310;2022-11-04T09:40:20;4.72;;;1.90;;
31270;SDS011;17904;47.420;9.310;2022-11-04T09:45:48;7.10;;;1.38;;
31270;SDS011;17904;47.420;9.310;2022-11-04T09:50:50;3.58;;;1.40;;
31270;SDS011;17904;47.420;9.310;2022-11-04T09:58:41;3.17;;;1.38;;
31270;SDS011;17904;47.420;9.310;2022-11-04T10:01:14;7.93;;;2.10;;
31270;SDS011;17904;47.420;9.310;2022-11-04T10:04:17;3.53;;;1.65;;
31270;SDS011;17904;47.420;9.310;2022-11-04T10:07:01;7.47;;;1.98;;
31270;SDS011;17904;47.420;9.310;2022-11-04T10:09:41;5.57;;;2.50;;
31270;SDS011;17904;47.420;9.310;2022-11-04T10:12:19;4.30;;;1.98;;
31270;SDS011;17904;47.420;9.310;2022-11-04T10:15:21;8.07;;;1.67;;
31270;SDS011;17904;47.420;9.310;2022-11-04T10:18:17;8.52;;;1.48;;
31270;SDS011;17904;47.420;9.310;2022-11-04T10:20:51;3.00;;;1.48;;
31270;SDS011;17904;47.420;9.310;2022-11-04T10:23:54;1.40;;;1.30;;
31270;SDS011;17904;47.420;9.310;2022-11-04T10:29:34;2.70;;;1.40;;
31270;SDS011;17904;47.420;9.310;2022-11-04T10:32:16;5.70;;;1.15;;
31270;SDS011;17904;47.420;9.310;2022-11-04T10:34:56;1.75;;;0.82;;
31270;SDS011;17904;47.420;9.310;2022-11-04T10:37:43;9.73;;;2.72;;
31270;SDS011;17904;47.420;9.310;2022-11-04T10:40:31;4.25;;;0.63;;
31270;SDS011;17904;47.420;9.310;2022-11-04T10:43:01;4.47;;;0.80;;
31270;SDS011;17904;47.420;9.310;2022-11-04T10:45:37;4.68;;;0.90;;
31270;SDS011;17904;47.420;9.310;2022-11-04T10:48:24;1.48;;;0.70;;
31270;SDS011;17904;47.420;9.310;2022-11-04T10:50:57;3.80;;;0.80;;
31270;SDS011;17904;47.420;9.310;2022-11-04T10:53:25;4.13;;;1.27;;
31270;SDS011;17904;47.420;9.310;2022-11-04T10:59:36;1.23;;;0.50;;
31270;SDS011;17904;47.420;9.310;2022-11-04T11:01:58;3.90;;;1.30;;
31270;SDS011;17904;47.420;9.310;2022-11-04T11:04:28;1.58;;;0.50;;
31270;SDS011;17904;47.420;9.310;2022-11-04T11:07:01;5.57;;;0.82;;
31270;SDS011;17904;47.420;9.310;2022-11-04T11:09:34;2.63;;;0.75;;
31270;SDS011;17904;47.420;9.310;2022-11-04T11:12:03;3.40;;;1.02;;
31270;SDS011;17904;47.420;9.310;2022-11-04T11:14:52;4.43;;;1.08;;
31270;SDS011;17904;47.420;9.310;2022-11-04T11:22:29;3.58;;;0.65;;
31270;SDS011;17904;47.420;9.310;2022-11-04T11:27:55;3.60;;;0.80;;
31270;SDS011;17904;47.420;9.310;2022-11-04T11:30:23;3.13;;;0.80;;
31270;SDS011;17904;47.420;9.310;2022-11-04T11:32:57;1.92;;;0.68;;
31270;SDS011;17904;47.420;9.310;2022-11-04T11:35:33;1.25;;;0.57;;
31270;SDS011;17904;47.420;9.310;2022-11-04T11:38:17;3.28;;;0.60;;
31270;SDS011;17904;47.420;9.310;2022-11-04T11:40:51;3.10;;;0.68;;
31270;SDS011;17904;47.420;9.310;2022-11-04T11:43:41;2.53;;;0.70;;
31270;SDS011;17904;47.420;9.310;2022-11-04T11:46:20;2.13;;;1.10;;
31270;SDS011;17904;47.420;9.310;2022-11-04T11:48:52;2.50;;;0.93;;
31270;SDS011;17904;47.420;9.310;2022-11-04T11:51:30;2.17;;;1.08;;
31270;SDS011;17904;47.420;9.310;2022-11-04T11:56:59;2.97;;;0.52;;
31270;SDS011;17904;47.420;9.310;2022-11-04T11:59:47;1.73;;;0.70;;
31270;SDS011;17904;47.420;9.310;2022-11-04T12:02:57;3.35;;;0.55;;
31270;SDS011;17904;47.420;9.310;2022-11-04T12:05:28;5.30;;;0.80;;
31270;SDS011;17904;47.420;9.310;2022-11-04T12:08:39;3.13;;;0.60;;
31270;SDS011;17904;47.420;9.310;2022-11-04T12:16:57;4.72;;;1.10;;
31270;SDS011;17904;47.420;9.310;2022-11-04T12:22:53;1.10;;;0.70;;
31270;SDS011;17904;47.420;9.310;2022-11-04T12:25:33;3.60;;;0.55;;
31270;SDS011;17904;47.420;9.310;2022-11-04T12:33:31;2.13;;;0.70;;
31270;SDS011;17904;47.420;9.310;2022-11-04T12:39:14;4.10;;;0.88;;
31270;SDS011;17904;47.420;9.310;2022-11-04T12:47:44;4.93;;;0.80;;
31270;SDS011;17904;47.420;9.310;2022-11-04T12:50:29;0.95;;;0.63;;
31270;SDS011;17904;47.420;9.310;2022-11-04T13:01:32;2.58;;;0.80;;
31270;SDS011;17904;47.420;9.310;2022-11-04T13:06:44;1.75;;;0.65;;
31270;SDS011;17904;47.420;9.310;2022-11-04T13:09:30;2.15;;;0.65;;
31270;SDS011;17904;47.420;9.310;2022-11-04T13:12:38;6.68;;;0.68;;
31270;SDS011;17904;47.420;9.310;2022-11-04T13:15:14;1.88;;;0.80;;
31270;SDS011;17904;47.420;9.310;2022-11-04T13:17:44;3.70;;;1.27;;
31270;SDS011;17904;47.420;9.310;2022-11-04T13:20:16;5.75;;;0.82;;
31270;SDS011;17904;47.420;9.310;2022-11-04T13:22:56;2.67;;;0.82;;
31270;SDS011;17904;47.420;9.310;2022-11-04T13:25:43;1.80;;;0.70;;
31270;SDS011;17904;47.420;9.310;2022-11-04T13:28:11;1.45;;;1.00;;
31270;SDS011;17904;47.420;9.310;2022-11-04T13:39:07;6.25;;;1.55;;
31270;SDS011;17904;47.420;9.310;2022-11-04T13:42:04;2.90;;;1.17;;
31270;SDS011;17904;47.420;9.310;2022-11-04T13:44:47;8.07;;;0.90;;
31270;SDS011;17904;47.420;9.310;2022-11-04T13:47:18;3.70;;;0.93;;
31270;SDS011;17904;47.420;9.310;2022-11-04T13:49:53;2.78;;;1.00;;
31270;SDS011;17904;47.420;9.310;2022-11-04T13:52:21;4.97;;;1.10;;
31270;SDS011;17904;47.420;9.310;2022-11-04T13:55:03;3.58;;;1.10;;
31270;SDS011;17904;47.420;9.310;2022-11-04T13:57:33;4.28;;;1.00;;
31270;SDS011;17904;47.420;9.310;2022-11-04T14:00:22;5.50;;;1.55;;
31270;SDS011;17904;47.420;9.310;2022-11-04T14:02:51;3.25;;;1.05;;
31270;SDS011;17904;47.420;9.310;2022-11-04T14:08:22;5.93;;;1.40;;
31270;SDS011;17904;47.420;9.310;2022-11-04T14:16:00;4.57;;;0.95;;
31270;SDS011;17904;47.420;9.310;2022-11-04T14:18:40;4.07;;;0.95;;
31270;SDS011;17904;47.420;9.310;2022-11-04T14:21:10;3.63;;;0.82;;
31270;SDS011;17904;47.420;9.310;2022-11-04T14:23:39;4.55;;;0.98;;
31270;SDS011;17904;47.420;9.310;2022-11-04T14:26:15;6.50;;;1.40;;
31270;SDS011;17904;47.420;9.310;2022-11-04T14:29:06;7.63;;;1.38;;
31270;SDS011;17904;47.420;9.310;2022-11-04T14:31:41;1.20;;;0.80;;
31270;SDS011;17904;47.420;9.310;2022-11-04T14:34:24;3.30;;;1.10;;
31270;SDS011;17904;47.420;9.310;2022-11-04T14:37:32;3.15;;;1.17;;
31270;SDS011;17904;47.420;9.310;2022-11-04T14:39:55;3.90;;;1.15;;
31270;SDS011;17904;47.420;9.310;2022-11-04T14:42:43;2.45;;;0.98;;
31270;SDS011;17904;47.420;9.310;2022-11-04T14:45:16;2.65;;;0.80;;
31270;SDS011;17904;47.420;9.310;2022-11-04T14:47:52;3.35;;;0.80;;
31270;SDS011;17904;47.420;9.310;2022-11-04T14:50:25;1.20;;;0.68;;
31270;SDS011;17904;47.420;9.310;2022-11-04T14:52:54;1.25;;;0.60;;
31270;SDS011;17904;47.420;9.310;2022-11-04T14:55:27;1.23;;;0.77;;
31270;SDS011;17904;47.420;9.310;2022-11-04T14:57:58;2.17;;;0.80;;
31270;SDS011;17904;47.420;9.310;2022-11-04T15:03:22;4.28;;;1.27;;
31270;SDS011;17904;47.420;9.310;2022-11-04T15:06:11;1.58;;;0.80;;
31270;SDS011;17904;47.420;9.310;2022-11-04T15:11:09;3.50;;;1.23;;
31270;SDS011;17904;47.420;9.310;2022-11-04T15:14:12;5.65;;;1.83;;
31270;SDS011;17904;47.420;9.310;2022-11-04T15:16:43;3.00;;;1.35;;
31270;SDS011;17904;47.420;9.310;2022-11-04T15:19:13;1.60;;;1.05;;
31270;SDS011;17904;47.420;9.310;2022-11-04T15:21:48;2.97;;;1.10;;
31270;SDS011;17904;47.420;9.310;2022-11-04T15:24:15;2.35;;;0.88;;
31270;SDS011;17904;47.420;9.310;2022-11-04T15:26:42;5.82;;;1.38;;
31270;SDS011;17904;47.420;9.310;2022-11-04T15:29:19;6.63;;;1.15;;
31270;SDS011;17904;47.420;9.310;2022-11-04T15:31:55;2.17;;;1.02;;
31270;SDS011;17904;47.420;9.310;2022-11-04T15:34:25;2.25;;;0.98;;
31270;SDS011;17904;47.420;9.310;2022-11-04T15:36:54;1.70;;;1.23;;
31270;SDS011;17904;47.420;9.310;2022-11-04T15:39:27;2.85;;;0.82;;
31270;SDS011;17904;47.420;9.310;2022-11-04T15:41:58;2.03;;;0.80;;
31270;SDS011;17904;47.420;9.310;2022-11-04T15:44:48;5.20;;;1.35;;
31270;SDS011;17904;47.420;9.310;2022-11-04T15:49:43;2.08;;;1.08;;
31270;SDS011;17904;47.420;9.310;2022-11-04T15:52:11;2.45;;;0.95;;
31270;SDS011;17904;47.420;9.310;2022-11-04T15:54:43;2.50;;;1.40;;
31270;SDS011;17904;47.420;9.310;2022-11-04T16:02:21;8.07;;;3.28;;
31270;SDS011;17904;47.420;9.310;2022-11-04T16:05:03;4.18;;;2.55;;
31270;SDS011;17904;47.420;9.310;2022-11-04T16:07:39;4.47;;;2.28;;
31270;SDS011;17904;47.420;9.310;2022-11-04T16:13:01;2.22;;;1.13;;
31270;SDS011;17904;47.420;9.310;2022-11-04T16:15:50;2.38;;;1.30;;
31270;SDS011;17904;47.420;9.310;2022-11-04T16:18:42;4.63;;;1.10;;
31270;SDS011;17904;47.420;9.310;2022-11-04T16:23:50;6.53;;;1.02;;
31270;SDS011;17904;47.420;9.310;2022-11-04T16:26:57;1.38;;;0.90;;
31270;SDS011;17904;47.420;9.310;2022-11-04T16:29:20;2.88;;;0.90;;
31270;SDS011;17904;47.420;9.310;2022-11-04T16:34:52;1.15;;;0.88;;
31270;SDS011;17904;47.420;9.310;2022-11-04T16:37:25;2.28;;;0.98;;
31270;SDS011;17904;47.420;9.310;2022-11-04T16:39:52;2.58;;;0.90;;
31270;SDS011;17904;47.420;9.310;2022-11-04T16:42:19;5.70;;;1.00;;
31270;SDS011;17904;47.420;9.310;2022-11-04T16:44:48;6.88;;;1.35;;
31270;SDS011;17904;47.420;9.310;2022-11-04T16:47:17;1.05;;;0.70;;
31270;SDS011;17904;47.420;9.310;2022-11-04T16:49:44;2.72;;;1.38;;
31270;SDS011;17904;47.420;9.310;2022-11-04T16:52:14;2.13;;;0.85;;
31270;SDS011;17904;47.420;9.310;2022-11-04T16:54:46;0.95;;;0.70;;
31270;SDS011;17904;47.420;9.310;2022-11-04T16:57:13;1.38;;;0.60;;
31270;SDS011;17904;47.420;9.310;2022-11-04T16:59:41;1.25;;;0.77;;
31270;SDS011;17904;47.420;9.310;2022-11-04T17:02:16;1.52;;;0.63;;
31270;SDS011;17904;47.420;9.310;2022-11-04T17:04:54;2.95;;;0.98;;
31270;SDS011;17904;47.420;9.310;2022-11-04T17:07:20;2.17;;;0.95;;
31270;SDS011;17904;47.420;9.310;2022-11-04T17:12:42;1.70;;;0.98;;
31270;SDS011;17904;47.420;9.310;2022-11-04T17:15:09;1.77;;;1.50;;
31270;SDS011;17904;47.420;9.310;2022-11-04T17:17:37;1.45;;;0.90;;
31270;SDS011;17904;47.420;9.310;2022-11-04T17:22:32;1.80;;;0.80;;
31270;SDS011;17904;47.420;9.310;2022-11-04T17:24:59;2.88;;;0.80;;
31270;SDS011;17904;47.420;9.310;2022-11-04T17:27:26;4.65;;;1.33;;
31270;SDS011;17904;47.420;9.310;2022-11-04T17:29:53;6.70;;;1.05;;
31270;SDS011;17904;47.420;9.310;2022-11-04T17:32:21;0.98;;;0.93;;
31270;SDS011;17904;47.420;9.310;2022-11-04T17:37:14;1.42;;;1.02;;
31270;SDS011;17904;47.420;9.310;2022-11-04T17:39:41;5.65;;;1.48;;
31270;SDS011;17904;47.420;9.310;2022-11-04T17:42:08;5.18;;;1.40;;
31270;SDS011;17904;47.420;9.310;2022-11-04T17:44:53;1.90;;;1.00;;
31270;SDS011;17904;47.420;9.310;2022-11-04T17:47:20;1.60;;;1.08;;
31270;SDS011;17904;47.420;9.310;2022-11-04T17:49:46;1.35;;;1.25;;
31270;SDS011;17904;47.420;9.310;2022-11-04T17:54:40;4.38;;;1.45;;
31270;SDS011;17904;47.420;9.310;2022-11-04T17:57:06;2.85;;;1.55;;
31270;SDS011;17904;47.420;9.310;2022-11-04T18:02:02;4.95;;;2.15;;
31270;SDS011;17904;47.420;9.310;2022-11-04T18:04:29;6.60;;;2.20;;
31270;SDS011;17904;47.420;9.310;2022-11-04T18:06:56;6.13;;;2.17;;
31270;SDS011;17904;47.420;9.310;2022-11-04T18:09:28;5.28;;;2.00;;
31270;SDS011;17904;47.420;9.310;2022-11-04T18:11:56;4.97;;;1.90;;
31270;SDS011;17904;47.420;9.310;2022-11-04T18:14:42;3.13;;;1.25;;
31270;SDS011;17904;47.420;9.310;2022-11-04T18:17:08;2.05;;;1.27;;
31270;SDS011;17904;47.420;9.310;2022-11-04T18:22:02;7.80;;;2.13;;
31270;SDS011;17904;47.420;9.310;2022-11-04T18:24:29;6.90;;;1.83;;
31270;SDS011;17904;47.420;9.310;2022-11-04T18:29:23;17.52;;;2.30;;
31270;SDS011;17904;47.420;9.310;2022-11-04T18:31:50;4.10;;;1.80;;
31270;SDS011;17904;47.420;9.310;2022-11-04T18:34:17;4.68;;;1.65;;
31270;SDS011;17904;47.420;9.310;2022-11-04T18:36:45;6.53;;;2.03;;
31270;SDS011;17904;47.420;9.310;2022-11-04T18:39:14;6.20;;;2.20;;
31270;SDS011;17904;47.420;9.310;2022-11-04T18:41:42;5.40;;;1.90;;
31270;SDS011;17904;47.420;9.310;2022-11-04T18:44:11;6.47;;;1.98;;
31270;SDS011;17904;47.420;9.310;2022-11-04T18:46:49;9.38;;;1.80;;
31270;SDS011;17904;47.420;9.310;2022-11-04T18:49:16;4.07;;;1.58;;